sensor_id;sensor_type;location;lat;lon;timestamp;P1;durP1;ratioP1;P2;durP2;ratioP2
57217;SDS011;43078;52.972;6.482;2023-02-19T00:01:37;28.42;;;13.85;;
57217;SDS011;43078;52.972;6.482;2023-02-19T00:04:09;25.58;;;13.60;;
57217;SDS011;43078;52.972;6.482;2023-02-19T00:06:40;25.00;;;13.25;;
57217;SDS011;43078;52.972;6.482;2023-02-19T00:09:06;23.90;;;12.60;;
57217;SDS011;43078;52.972;6.482;2023-02-19T00:11:33;24.05;;;12.45;;
57217;SDS011;43078;52.972;6.482;2023-02-19T00:13:59;19.45;;;11.88;;
57217;SDS011;43078;52.972;6.482;2023-02-19T00:16:30;20.52;;;12.48;;
57217;SDS011;43078;52.972;6.482;2023-02-19T00:19:00;20.13;;;12.30;;
57217;SDS011;43078;52.972;6.482;2023-02-19T00:21:29;22.75;;;12.60;;
57217;SDS011;43078;52.972;6.482;2023-02-19T00:23:57;20.40;;;12.18;;
57217;SDS011;43078;52.972;6.482;2023-02-19T00:26:24;21.35;;;12.93;;
57217;SDS011;43078;52.972;6.482;2023-02-19T00:28:51;19.02;;;12.82;;
57217;SDS011;43078;52.972;6.482;2023-02-19T00:31:19;21.17;;;12.75;;
57217;SDS011;43078;52.972;6.482;2023-02-19T00:33:53;20.38;;;13.07;;
57217;SDS011;43078;52.972;6.482;2023-02-19T00:36:21;24.23;;;13.82;;
57217;SDS011;43078;52.972;6.482;2023-02-19T00:38:47;20.33;;;12.27;;
57217;SDS011;43078;52.972;6.482;2023-02-19T00:41:14;26.83;;;14.23;;
57217;SDS011;43078;52.972;6.482;2023-02-19T00:43:51;25.45;;;15.00;;
57217;SDS011;43078;52.972;6.482;2023-02-19T00:46:31;21.23;;;13.68;;
57217;SDS011;43078;52.972;6.482;2023-02-19T00:48:58;24.77;;;14.63;;
57217;SDS011;43078;52.972;6.482;2023-02-19T00:51:25;25.98;;;14.40;;
57217;SDS011;43078;52.972;6.482;2023-02-19T00:53:55;23.90;;;13.98;;
57217;SDS011;43078;52.972;6.482;2023-02-19T00:56:21;25.98;;;14.15;;
57217;SDS011;43078;52.972;6.482;2023-02-19T00:58:47;28.40;;;14.52;;
57217;SDS011;43078;52.972;6.482;2023-02-19T01:01:13;24.30;;;13.27;;
57217;SDS011;43078;52.972;6.482;2023-02-19T01:03:39;30.88;;;13.32;;
57217;SDS011;43078;52.972;6.482;2023-02-19T01:06:06;22.48;;;13.00;;
57217;SDS011;43078;52.972;6.482;2023-02-19T01:08:33;23.98;;;12.40;;
57217;SDS011;43078;52.972;6.482;2023-02-19T01:10:59;21.85;;;11.80;;
57217;SDS011;43078;52.972;6.482;2023-02-19T01:13:26;21.15;;;10.90;;
57217;SDS011;43078;52.972;6.482;2023-02-19T01:15:52;23.75;;;11.55;;
57217;SDS011;43078;52.972;6.482;2023-02-19T01:18:19;17.75;;;10.85;;
57217;SDS011;43078;52.972;6.482;2023-02-19T01:20:44;25.27;;;10.77;;
57217;SDS011;43078;52.972;6.482;2023-02-19T01:23:11;23.65;;;10.63;;
57217;SDS011;43078;52.972;6.482;2023-02-19T01:25:38;17.77;;;9.20;;
57217;SDS011;43078;52.972;6.482;2023-02-19T01:28:05;20.92;;;9.20;;
57217;SDS011;43078;52.972;6.482;2023-02-19T01:30:33;23.20;;;9.07;;
57217;SDS011;43078;52.972;6.482;2023-02-19T01:33:01;23.73;;;10.10;;
57217;SDS011;43078;52.972;6.482;2023-02-19T01:35:27;21.83;;;9.93;;
57217;SDS011;43078;52.972;6.482;2023-02-19T01:37:53;20.80;;;9.43;;
57217;SDS011;43078;52.972;6.482;2023-02-19T01:40:19;17.35;;;8.48;;
57217;SDS011;43078;52.972;6.482;2023-02-19T01:42:44;19.60;;;8.75;;
57217;SDS011;43078;52.972;6.482;2023-02-19T01:47:45;20.40;;;9.10;;
57217;SDS011;43078;52.972;6.482;2023-02-19T01:50:13;19.20;;;8.45;;
57217;SDS011;43078;52.972;6.482;2023-02-19T01:52:39;20.10;;;9.65;;
57217;SDS011;43078;52.972;6.482;2023-02-19T01:55:05;15.93;;;9.45;;
57217;SDS011;43078;52.972;6.482;2023-02-19T01:57:35;18.45;;;8.23;;
57217;SDS011;43078;52.972;6.482;2023-02-19T02:00:08;19.33;;;8.65;;
57217;SDS011;43078;52.972;6.482;2023-02-19T02:02:35;18.90;;;8.18;;
57217;SDS011;43078;52.972;6.482;2023-02-19T02:05:03;17.42;;;8.23;;
57217;SDS011;43078;52.972;6.482;2023-02-19T02:07:41;21.98;;;7.53;;
57217;SDS011;43078;52.972;6.482;2023-02-19T02:10:25;18.10;;;7.13;;
57217;SDS011;43078;52.972;6.482;2023-02-19T02:12:53;18.85;;;7.03;;
57217;SDS011;43078;52.972;6.482;2023-02-19T02:15:21;13.85;;;6.65;;
57217;SDS011;43078;52.972;6.482;2023-02-19T02:17:51;16.25;;;6.18;;
57217;SDS011;43078;52.972;6.482;2023-02-19T02:20:31;16.75;;;5.90;;
57217;SDS011;43078;52.972;6.482;2023-02-19T02:25:58;15.38;;;5.75;;
57217;SDS011;43078;52.972;6.482;2023-02-19T02:31:42;15.00;;;5.70;;
57217;SDS011;43078;52.972;6.482;2023-02-19T02:34:18;15.00;;;5.60;;
57217;SDS011;43078;52.972;6.482;2023-02-19T02:36:49;14.85;;;6.80;;
57217;SDS011;43078;52.972;6.482;2023-02-19T02:39:19;17.40;;;6.97;;
57217;SDS011;43078;52.972;6.482;2023-02-19T02:41:54;17.98;;;7.13;;
57217;SDS011;43078;52.972;6.482;2023-02-19T02:44:40;17.85;;;7.43;;
57217;SDS011;43078;52.972;6.482;2023-02-19T02:47:28;15.57;;;7.60;;
57217;SDS011;43078;52.972;6.482;2023-02-19T02:50:06;18.35;;;7.10;;
57217;SDS011;43078;52.972;6.482;2023-02-19T02:52:35;16.30;;;7.53;;
57217;SDS011;43078;52.972;6.482;2023-02-19T02:55:24;16.60;;;7.13;;
57217;SDS011;43078;52.972;6.482;2023-02-19T02:57:53;18.88;;;7.80;;
57217;SDS011;43078;52.972;6.482;2023-02-19T03:00:19;17.27;;;7.93;;
57217;SDS011;43078;52.972;6.482;2023-02-19T03:02:46;19.70;;;8.02;;
57217;SDS011;43078;52.972;6.482;2023-02-19T03:05:15;15.70;;;7.28;;
57217;SDS011;43078;52.972;6.482;2023-02-19T03:08:06;15.32;;;6.82;;
57217;SDS011;43078;52.972;6.482;2023-02-19T03:10:58;13.98;;;6.72;;
57217;SDS011;43078;52.972;6.482;2023-02-19T03:13:44;17.92;;;7.30;;
57217;SDS011;43078;52.972;6.482;2023-02-19T03:16:30;18.55;;;7.95;;
57217;SDS011;43078;52.972;6.482;2023-02-19T03:19:18;12.82;;;6.38;;
57217;SDS011;43078;52.972;6.482;2023-02-19T03:21:48;14.88;;;6.70;;
57217;SDS011;43078;52.972;6.482;2023-02-19T03:24:20;9.52;;;5.93;;
57217;SDS011;43078;52.972;6.482;2023-02-19T03:27:08;12.27;;;6.43;;
57217;SDS011;43078;52.972;6.482;2023-02-19T03:29:36;14.60;;;6.40;;
57217;SDS011;43078;52.972;6.482;2023-02-19T03:32:05;10.77;;;5.80;;
57217;SDS011;43078;52.972;6.482;2023-02-19T03:34:46;12.25;;;5.78;;
57217;SDS011;43078;52.972;6.482;2023-02-19T03:37:27;11.25;;;5.70;;
57217;SDS011;43078;52.972;6.482;2023-02-19T03:39:56;9.95;;;5.72;;
57217;SDS011;43078;52.972;6.482;2023-02-19T03:50:47;8.88;;;5.40;;
57217;SDS011;43078;52.972;6.482;2023-02-19T03:53:31;9.38;;;5.30;;
57217;SDS011;43078;52.972;6.482;2023-02-19T03:56:09;11.02;;;5.28;;
57217;SDS011;43078;52.972;6.482;2023-02-19T03:58:43;10.18;;;5.00;;
57217;SDS011;43078;52.972;6.482;2023-02-19T04:01:27;11.02;;;5.13;;
57217;SDS011;43078;52.972;6.482;2023-02-19T04:06:36;11.00;;;4.90;;
57217;SDS011;43078;52.972;6.482;2023-02-19T04:09:05;11.23;;;4.80;;
57217;SDS011;43078;52.972;6.482;2023-02-19T04:11:35;7.15;;;4.22;;
57217;SDS011;43078;52.972;6.482;2023-02-19T04:16:32;8.90;;;4.60;;
57217;SDS011;43078;52.972;6.482;2023-02-19T04:19:05;9.73;;;4.63;;
57217;SDS011;43078;52.972;6.482;2023-02-19T04:21:36;11.30;;;4.28;;
57217;SDS011;43078;52.972;6.482;2023-02-19T04:24:05;8.20;;;3.63;;
57217;SDS011;43078;52.972;6.482;2023-02-19T04:26:35;8.15;;;4.10;;
57217;SDS011;43078;52.972;6.482;2023-02-19T04:29:01;6.70;;;3.90;;
57217;SDS011;43078;52.972;6.482;2023-02-19T04:31:27;6.75;;;3.70;;
57217;SDS011;43078;52.972;6.482;2023-02-19T04:33:55;7.78;;;4.32;;
57217;SDS011;43078;52.972;6.482;2023-02-19T04:36:20;9.48;;;3.90;;
57217;SDS011;43078;52.972;6.482;2023-02-19T04:38:46;6.50;;;3.35;;
57217;SDS011;43078;52.972;6.482;2023-02-19T04:41:11;6.85;;;4.05;;
57217;SDS011;43078;52.972;6.482;2023-02-19T04:43:37;8.18;;;3.83;;
57217;SDS011;43078;52.972;6.482;2023-02-19T04:46:04;5.55;;;2.92;;
57217;SDS011;43078;52.972;6.482;2023-02-19T04:48:30;5.40;;;3.17;;
57217;SDS011;43078;52.972;6.482;2023-02-19T04:50:55;7.88;;;3.60;;
57217;SDS011;43078;52.972;6.482;2023-02-19T04:53:21;10.15;;;3.83;;
57217;SDS011;43078;52.972;6.482;2023-02-19T04:55:47;6.55;;;3.38;;
57217;SDS011;43078;52.972;6.482;2023-02-19T04:58:12;9.40;;;3.10;;
57217;SDS011;43078;52.972;6.482;2023-02-19T05:00:38;9.48;;;3.70;;
57217;SDS011;43078;52.972;6.482;2023-02-19T05:03:04;6.43;;;3.13;;
57217;SDS011;43078;52.972;6.482;2023-02-19T05:05:30;7.18;;;3.58;;
57217;SDS011;43078;52.972;6.482;2023-02-19T05:07:55;7.28;;;3.30;;
57217;SDS011;43078;52.972;6.482;2023-02-19T05:10:21;7.72;;;3.13;;
57217;SDS011;43078;52.972;6.482;2023-02-19T05:12:46;6.20;;;3.28;;
57217;SDS011;43078;52.972;6.482;2023-02-19T05:15:12;7.00;;;3.25;;
57217;SDS011;43078;52.972;6.482;2023-02-19T05:17:38;7.03;;;3.42;;
57217;SDS011;43078;52.972;6.482;2023-02-19T05:20:03;6.22;;;3.05;;
57217;SDS011;43078;52.972;6.482;2023-02-19T05:22:29;6.57;;;3.05;;
57217;SDS011;43078;52.972;6.482;2023-02-19T05:24:55;6.55;;;3.10;;
57217;SDS011;43078;52.972;6.482;2023-02-19T05:27:20;5.25;;;2.90;;
57217;SDS011;43078;52.972;6.482;2023-02-19T05:29:46;6.68;;;3.08;;
57217;SDS011;43078;52.972;6.482;2023-02-19T05:32:11;7.07;;;3.05;;
57217;SDS011;43078;52.972;6.482;2023-02-19T05:34:37;6.28;;;3.15;;
57217;SDS011;43078;52.972;6.482;2023-02-19T05:37:03;6.47;;;2.80;;
57217;SDS011;43078;52.972;6.482;2023-02-19T05:39:28;6.95;;;3.17;;
57217;SDS011;43078;52.972;6.482;2023-02-19T05:41:54;6.43;;;3.17;;
57217;SDS011;43078;52.972;6.482;2023-02-19T05:44:19;5.13;;;2.97;;
57217;SDS011;43078;52.972;6.482;2023-02-19T05:46:45;8.63;;;3.15;;
57217;SDS011;43078;52.972;6.482;2023-02-19T05:49:10;7.55;;;3.00;;
57217;SDS011;43078;52.972;6.482;2023-02-19T05:51:36;5.53;;;3.10;;
57217;SDS011;43078;52.972;6.482;2023-02-19T05:54:02;8.55;;;3.33;;
57217;SDS011;43078;52.972;6.482;2023-02-19T05:56:38;5.53;;;3.08;;
57217;SDS011;43078;52.972;6.482;2023-02-19T06:02:37;5.13;;;2.90;;
57217;SDS011;43078;52.972;6.482;2023-02-19T06:05:18;5.72;;;3.60;;
57217;SDS011;43078;52.972;6.482;2023-02-19T06:07:47;6.85;;;3.20;;
57217;SDS011;43078;52.972;6.482;2023-02-19T06:10:17;6.00;;;3.58;;
57217;SDS011;43078;52.972;6.482;2023-02-19T06:12:53;5.60;;;3.50;;
57217;SDS011;43078;52.972;6.482;2023-02-19T06:15:19;6.28;;;3.25;;
57217;SDS011;43078;52.972;6.482;2023-02-19T06:17:45;5.97;;;3.38;;
57217;SDS011;43078;52.972;6.482;2023-02-19T06:20:11;5.95;;;3.85;;
57217;SDS011;43078;52.972;6.482;2023-02-19T06:22:36;12.82;;;3.90;;
57217;SDS011;43078;52.972;6.482;2023-02-19T06:25:02;6.95;;;3.72;;
57217;SDS011;43078;52.972;6.482;2023-02-19T06:27:28;8.18;;;3.80;;
57217;SDS011;43078;52.972;6.482;2023-02-19T06:29:53;6.95;;;3.60;;
57217;SDS011;43078;52.972;6.482;2023-02-19T06:32:19;9.30;;;3.70;;
57217;SDS011;43078;52.972;6.482;2023-02-19T06:34:45;7.95;;;3.38;;
57217;SDS011;43078;52.972;6.482;2023-02-19T06:37:10;6.03;;;3.25;;
57217;SDS011;43078;52.972;6.482;2023-02-19T06:39:36;11.35;;;3.67;;
57217;SDS011;43078;52.972;6.482;2023-02-19T06:42:02;7.63;;;3.38;;
57217;SDS011;43078;52.972;6.482;2023-02-19T06:44:27;8.27;;;3.05;;
57217;SDS011;43078;52.972;6.482;2023-02-19T06:46:53;5.22;;;3.30;;
57217;SDS011;43078;52.972;6.482;2023-02-19T06:49:20;9.55;;;3.30;;
57217;SDS011;43078;52.972;6.482;2023-02-19T06:51:45;8.13;;;3.38;;
57217;SDS011;43078;52.972;6.482;2023-02-19T06:54:11;6.30;;;3.05;;
57217;SDS011;43078;52.972;6.482;2023-02-19T06:56:37;4.90;;;3.10;;
57217;SDS011;43078;52.972;6.482;2023-02-19T06:59:11;5.32;;;3.05;;
57217;SDS011;43078;52.972;6.482;2023-02-19T07:01:38;5.97;;;2.90;;
57217;SDS011;43078;52.972;6.482;2023-02-19T07:04:05;6.80;;;3.63;;
57217;SDS011;43078;52.972;6.482;2023-02-19T07:06:32;5.95;;;3.33;;
57217;SDS011;43078;52.972;6.482;2023-02-19T07:08:58;5.65;;;3.50;;
57217;SDS011;43078;52.972;6.482;2023-02-19T07:11:25;5.65;;;2.85;;
57217;SDS011;43078;52.972;6.482;2023-02-19T07:13:53;8.02;;;3.25;;
57217;SDS011;43078;52.972;6.482;2023-02-19T07:16:23;6.68;;;3.20;;
57217;SDS011;43078;52.972;6.482;2023-02-19T07:18:49;5.63;;;3.00;;
57217;SDS011;43078;52.972;6.482;2023-02-19T07:21:16;6.53;;;3.10;;
57217;SDS011;43078;52.972;6.482;2023-02-19T07:23:43;5.22;;;3.15;;
57217;SDS011;43078;52.972;6.482;2023-02-19T07:26:10;6.95;;;3.60;;
57217;SDS011;43078;52.972;6.482;2023-02-19T07:28:38;6.53;;;3.70;;
57217;SDS011;43078;52.972;6.482;2023-02-19T07:31:05;6.28;;;3.65;;
57217;SDS011;43078;52.972;6.482;2023-02-19T07:33:30;6.47;;;3.53;;
57217;SDS011;43078;52.972;6.482;2023-02-19T07:35:56;6.43;;;3.55;;
57217;SDS011;43078;52.972;6.482;2023-02-19T07:38:22;8.73;;;3.85;;
57217;SDS011;43078;52.972;6.482;2023-02-19T07:40:50;6.38;;;3.30;;
57217;SDS011;43078;52.972;6.482;2023-02-19T07:43:23;6.25;;;3.58;;
57217;SDS011;43078;52.972;6.482;2023-02-19T07:45:50;8.95;;;3.70;;
57217;SDS011;43078;52.972;6.482;2023-02-19T07:48:16;6.18;;;3.40;;
57217;SDS011;43078;52.972;6.482;2023-02-19T07:50:52;10.38;;;4.22;;
57217;SDS011;43078;52.972;6.482;2023-02-19T07:53:19;8.13;;;3.90;;
57217;SDS011;43078;52.972;6.482;2023-02-19T07:55:46;7.55;;;4.07;;
57217;SDS011;43078;52.972;6.482;2023-02-19T07:58:12;7.95;;;3.95;;
57217;SDS011;43078;52.972;6.482;2023-02-19T08:00:38;6.40;;;3.47;;
57217;SDS011;43078;52.972;6.482;2023-02-19T08:03:03;7.75;;;3.80;;
57217;SDS011;43078;52.972;6.482;2023-02-19T08:05:30;7.75;;;4.03;;
57217;SDS011;43078;52.972;6.482;2023-02-19T08:07:58;8.13;;;3.55;;
57217;SDS011;43078;52.972;6.482;2023-02-19T08:10:25;5.78;;;3.70;;
57217;SDS011;43078;52.972;6.482;2023-02-19T08:13:10;5.90;;;3.67;;
57217;SDS011;43078;52.972;6.482;2023-02-19T08:15:43;7.10;;;3.70;;
57217;SDS011;43078;52.972;6.482;2023-02-19T08:18:15;5.57;;;3.47;;
57217;SDS011;43078;52.972;6.482;2023-02-19T08:20:42;8.07;;;3.78;;
57217;SDS011;43078;52.972;6.482;2023-02-19T08:23:08;7.30;;;3.78;;
57217;SDS011;43078;52.972;6.482;2023-02-19T08:25:34;11.15;;;3.88;;
57217;SDS011;43078;52.972;6.482;2023-02-19T08:28:00;7.85;;;3.58;;
57217;SDS011;43078;52.972;6.482;2023-02-19T08:30:27;8.10;;;3.90;;
57217;SDS011;43078;52.972;6.482;2023-02-19T08:32:53;7.47;;;3.60;;
57217;SDS011;43078;52.972;6.482;2023-02-19T08:35:19;8.32;;;3.50;;
57217;SDS011;43078;52.972;6.482;2023-02-19T08:37:45;7.15;;;3.70;;
57217;SDS011;43078;52.972;6.482;2023-02-19T08:40:11;8.75;;;4.00;;
57217;SDS011;43078;52.972;6.482;2023-02-19T08:42:36;6.05;;;3.10;;
57217;SDS011;43078;52.972;6.482;2023-02-19T08:45:02;8.57;;;3.70;;
57217;SDS011;43078;52.972;6.482;2023-02-19T08:47:28;10.32;;;3.78;;
57217;SDS011;43078;52.972;6.482;2023-02-19T08:49:54;8.25;;;3.65;;
57217;SDS011;43078;52.972;6.482;2023-02-19T08:52:19;7.88;;;3.30;;
57217;SDS011;43078;52.972;6.482;2023-02-19T08:54:45;7.05;;;3.10;;
57217;SDS011;43078;52.972;6.482;2023-02-19T08:57:11;6.65;;;3.25;;
57217;SDS011;43078;52.972;6.482;2023-02-19T08:59:36;6.60;;;3.20;;
57217;SDS011;43078;52.972;6.482;2023-02-19T09:02:02;6.22;;;3.30;;
57217;SDS011;43078;52.972;6.482;2023-02-19T09:04:27;9.30;;;3.42;;
57217;SDS011;43078;52.972;6.482;2023-02-19T09:06:53;7.47;;;3.15;;
57217;SDS011;43078;52.972;6.482;2023-02-19T09:09:24;6.10;;;2.80;;
57217;SDS011;43078;52.972;6.482;2023-02-19T09:11:49;6.20;;;3.08;;
57217;SDS011;43078;52.972;6.482;2023-02-19T09:14:15;6.90;;;3.10;;
57217;SDS011;43078;52.972;6.482;2023-02-19T09:16:43;6.43;;;2.72;;
57217;SDS011;43078;52.972;6.482;2023-02-19T09:19:12;9.10;;;3.25;;
57217;SDS011;43078;52.972;6.482;2023-02-19T09:21:38;3.80;;;1.40;;
57217;SDS011;43078;52.972;6.482;2023-02-19T09:24:03;6.78;;;2.80;;
57217;SDS011;43078;52.972;6.482;2023-02-19T09:26:29;8.10;;;3.15;;
57217;SDS011;43078;52.972;6.482;2023-02-19T09:28:55;5.05;;;2.90;;
57217;SDS011;43078;52.972;6.482;2023-02-19T09:31:20;5.40;;;3.10;;
57217;SDS011;43078;52.972;6.482;2023-02-19T09:33:46;7.32;;;3.30;;
57217;SDS011;43078;52.972;6.482;2023-02-19T09:36:13;5.70;;;3.22;;
57217;SDS011;43078;52.972;6.482;2023-02-19T09:38:39;6.07;;;3.22;;
57217;SDS011;43078;52.972;6.482;2023-02-19T09:41:06;8.32;;;3.13;;
57217;SDS011;43078;52.972;6.482;2023-02-19T09:43:52;11.00;;;2.85;;
57217;SDS011;43078;52.972;6.482;2023-02-19T09:46:29;9.10;;;2.90;;
57217;SDS011;43078;52.972;6.482;2023-02-19T09:48:57;3.92;;;1.83;;
57217;SDS011;43078;52.972;6.482;2023-02-19T09:51:28;8.30;;;2.70;;
57217;SDS011;43078;52.972;6.482;2023-02-19T09:53:56;7.80;;;2.42;;
57217;SDS011;43078;52.972;6.482;2023-02-19T09:56:23;3.38;;;1.42;;
57217;SDS011;43078;52.972;6.482;2023-02-19T09:58:52;4.60;;;2.10;;
57217;SDS011;43078;52.972;6.482;2023-02-19T10:01:23;7.53;;;2.28;;
57217;SDS011;43078;52.972;6.482;2023-02-19T10:03:52;8.13;;;2.75;;
57217;SDS011;43078;52.972;6.482;2023-02-19T10:06:20;8.55;;;2.58;;
57217;SDS011;43078;52.972;6.482;2023-02-19T10:08:49;9.98;;;2.55;;
57217;SDS011;43078;52.972;6.482;2023-02-19T10:11:16;7.75;;;2.17;;
57217;SDS011;43078;52.972;6.482;2023-02-19T10:13:44;5.10;;;2.00;;
57217;SDS011;43078;52.972;6.482;2023-02-19T10:16:27;4.85;;;2.05;;
57217;SDS011;43078;52.972;6.482;2023-02-19T10:18:53;6.82;;;2.40;;
57217;SDS011;43078;52.972;6.482;2023-02-19T10:21:23;8.27;;;2.20;;
57217;SDS011;43078;52.972;6.482;2023-02-19T10:23:54;5.90;;;2.10;;
57217;SDS011;43078;52.972;6.482;2023-02-19T10:26:24;8.02;;;2.08;;
57217;SDS011;43078;52.972;6.482;2023-02-19T10:28:49;3.28;;;1.20;;
57217;SDS011;43078;52.972;6.482;2023-02-19T10:31:16;3.60;;;0.98;;
57217;SDS011;43078;52.972;6.482;2023-02-19T10:33:48;6.30;;;1.38;;
57217;SDS011;43078;52.972;6.482;2023-02-19T10:36:28;3.00;;;1.08;;
57217;SDS011;43078;52.972;6.482;2023-02-19T10:38:57;7.38;;;1.60;;
57217;SDS011;43078;52.972;6.482;2023-02-19T10:41:25;4.18;;;1.52;;
57217;SDS011;43078;52.972;6.482;2023-02-19T10:43:53;5.70;;;1.60;;
57217;SDS011;43078;52.972;6.482;2023-02-19T10:46:29;5.35;;;1.58;;
57217;SDS011;43078;52.972;6.482;2023-02-19T10:49:05;6.13;;;1.50;;
57217;SDS011;43078;52.972;6.482;2023-02-19T10:51:43;5.47;;;1.10;;
57217;SDS011;43078;52.972;6.482;2023-02-19T10:54:19;4.45;;;1.10;;
57217;SDS011;43078;52.972;6.482;2023-02-19T11:02:21;2.88;;;1.20;;
57217;SDS011;43078;52.972;6.482;2023-02-19T11:05:14;3.55;;;1.20;;
57217;SDS011;43078;52.972;6.482;2023-02-19T11:07:49;4.20;;;1.30;;
57217;SDS011;43078;52.972;6.482;2023-02-19T11:12:59;6.47;;;2.05;;
57217;SDS011;43078;52.972;6.482;2023-02-19T11:15:28;7.55;;;3.00;;
57217;SDS011;43078;52.972;6.482;2023-02-19T11:20:49;2.58;;;1.17;;
57217;SDS011;43078;52.972;6.482;2023-02-19T11:24:04;6.03;;;2.60;;
57217;SDS011;43078;52.972;6.482;2023-02-19T11:26:22;6.28;;;2.90;;
57217;SDS011;43078;52.972;6.482;2023-02-19T11:28:56;9.10;;;3.33;;
57217;SDS011;43078;52.972;6.482;2023-02-19T11:31:30;7.05;;;2.33;;
57217;SDS011;43078;52.972;6.482;2023-02-19T11:36:25;7.93;;;2.70;;
57217;SDS011;43078;52.972;6.482;2023-02-19T11:38:53;7.15;;;2.45;;
57217;SDS011;43078;52.972;6.482;2023-02-19T11:41:37;5.75;;;1.55;;
57217;SDS011;43078;52.972;6.482;2023-02-19T11:44:25;6.57;;;2.60;;
57217;SDS011;43078;52.972;6.482;2023-02-19T11:49:53;5.40;;;1.60;;
57217;SDS011;43078;52.972;6.482;2023-02-19T11:58:14;6.18;;;1.40;;
57217;SDS011;43078;52.972;6.482;2023-02-19T12:01:08;5.40;;;1.90;;
57217;SDS011;43078;52.972;6.482;2023-02-19T12:03:42;3.90;;;1.35;;
57217;SDS011;43078;52.972;6.482;2023-02-19T12:12:02;4.35;;;1.48;;
57217;SDS011;43078;52.972;6.482;2023-02-19T12:14:43;5.00;;;1.50;;
57217;SDS011;43078;52.972;6.482;2023-02-19T12:17:40;5.88;;;1.40;;
57217;SDS011;43078;52.972;6.482;2023-02-19T12:42:10;4.90;;;1.33;;
57217;SDS011;43078;52.972;6.482;2023-02-19T12:44:45;4.55;;;1.40;;
57217;SDS011;43078;52.972;6.482;2023-02-19T12:47:17;4.97;;;1.40;;
57217;SDS011;43078;52.972;6.482;2023-02-19T12:49:49;4.22;;;1.20;;
57217;SDS011;43078;52.972;6.482;2023-02-19T12:52:40;2.55;;;1.05;;
57217;SDS011;43078;52.972;6.482;2023-02-19T12:55:18;4.38;;;0.93;;
57217;SDS011;43078;52.972;6.482;2023-02-19T12:57:54;4.35;;;1.20;;
57217;SDS011;43078;52.972;6.482;2023-02-19T13:00:49;7.10;;;1.13;;
57217;SDS011;43078;52.972;6.482;2023-02-19T13:06:47;2.97;;;1.00;;
57217;SDS011;43078;52.972;6.482;2023-02-19T13:12:26;3.67;;;1.13;;
57217;SDS011;43078;52.972;6.482;2023-02-19T13:18:21;6.20;;;1.67;;
57217;SDS011;43078;52.972;6.482;2023-02-19T13:27:54;3.83;;;1.20;;
57217;SDS011;43078;52.972;6.482;2023-02-19T13:33:51;4.25;;;1.08;;
57217;SDS011;43078;52.972;6.482;2023-02-19T13:36:39;3.15;;;1.10;;
57217;SDS011;43078;52.972;6.482;2023-02-19T13:39:09;5.75;;;1.35;;
57217;SDS011;43078;52.972;6.482;2023-02-19T13:44:57;5.97;;;1.40;;
57217;SDS011;43078;52.972;6.482;2023-02-19T13:50:22;4.25;;;1.02;;
57217;SDS011;43078;52.972;6.482;2023-02-19T14:04:25;5.72;;;1.40;;
57217;SDS011;43078;52.972;6.482;2023-02-19T14:09:57;4.95;;;0.98;;
57217;SDS011;43078;52.972;6.482;2023-02-19T14:12:47;4.65;;;1.23;;
57217;SDS011;43078;52.972;6.482;2023-02-19T14:16:15;4.63;;;0.93;;
57217;SDS011;43078;52.972;6.482;2023-02-19T14:18:58;8.43;;;1.17;;
57217;SDS011;43078;52.972;6.482;2023-02-19T14:21:34;6.03;;;1.20;;
57217;SDS011;43078;52.972;6.482;2023-02-19T14:24:02;5.03;;;1.20;;
57217;SDS011;43078;52.972;6.482;2023-02-19T14:26:29;4.05;;;0.90;;
57217;SDS011;43078;52.972;6.482;2023-02-19T14:28:57;6.32;;;1.10;;
57217;SDS011;43078;52.972;6.482;2023-02-19T14:31:52;4.40;;;0.80;;
57217;SDS011;43078;52.972;6.482;2023-02-19T14:34:19;5.32;;;1.00;;
57217;SDS011;43078;52.972;6.482;2023-02-19T14:36:52;4.55;;;1.20;;
57217;SDS011;43078;52.972;6.482;2023-02-19T14:39:28;6.53;;;1.03;;
57217;SDS011;43078;52.972;6.482;2023-02-19T14:41:56;4.65;;;1.23;;
57217;SDS011;43078;52.972;6.482;2023-02-19T14:44:25;4.55;;;1.17;;
57217;SDS011;43078;52.972;6.482;2023-02-19T14:49:32;3.75;;;1.00;;
57217;SDS011;43078;52.972;6.482;2023-02-19T14:52:16;3.58;;;1.00;;
57217;SDS011;43078;52.972;6.482;2023-02-19T14:54:50;4.50;;;1.10;;
57217;SDS011;43078;52.972;6.482;2023-02-19T14:57:21;5.03;;;1.00;;
57217;SDS011;43078;52.972;6.482;2023-02-19T14:59:53;3.45;;;1.00;;
57217;SDS011;43078;52.972;6.482;2023-02-19T15:02:22;4.38;;;0.88;;
57217;SDS011;43078;52.972;6.482;2023-02-19T15:04:50;5.85;;;0.85;;
57217;SDS011;43078;52.972;6.482;2023-02-19T15:07:26;4.72;;;1.10;;
57217;SDS011;43078;52.972;6.482;2023-02-19T15:09:55;3.50;;;0.98;;
57217;SDS011;43078;52.972;6.482;2023-02-19T15:12:44;5.47;;;1.05;;
57217;SDS011;43078;52.972;6.482;2023-02-19T15:15:29;4.50;;;1.05;;
57217;SDS011;43078;52.972;6.482;2023-02-19T15:18:04;4.10;;;1.00;;
57217;SDS011;43078;52.972;6.482;2023-02-19T15:20:31;3.20;;;0.95;;
57217;SDS011;43078;52.972;6.482;2023-02-19T15:22:59;4.07;;;0.80;;
57217;SDS011;43078;52.972;6.482;2023-02-19T15:25:46;4.45;;;0.93;;
57217;SDS011;43078;52.972;6.482;2023-02-19T15:28:31;5.32;;;0.93;;
57217;SDS011;43078;52.972;6.482;2023-02-19T15:31:32;3.05;;;1.00;;
57217;SDS011;43078;52.972;6.482;2023-02-19T15:33:58;4.80;;;1.00;;
57217;SDS011;43078;52.972;6.482;2023-02-19T15:39:36;3.80;;;1.00;;
57217;SDS011;43078;52.972;6.482;2023-02-19T15:42:05;4.82;;;0.90;;
57217;SDS011;43078;52.972;6.482;2023-02-19T15:44:48;6.63;;;1.00;;
57217;SDS011;43078;52.972;6.482;2023-02-19T15:47:26;5.40;;;1.10;;
57217;SDS011;43078;52.972;6.482;2023-02-19T15:50:15;5.32;;;1.10;;
57217;SDS011;43078;52.972;6.482;2023-02-19T15:55:35;4.38;;;0.93;;
57217;SDS011;43078;52.972;6.482;2023-02-19T16:00:58;4.78;;;1.05;;
57217;SDS011;43078;52.972;6.482;2023-02-19T16:03:25;4.55;;;1.17;;
57217;SDS011;43078;52.972;6.482;2023-02-19T16:05:59;3.75;;;1.00;;
57217;SDS011;43078;52.972;6.482;2023-02-19T16:08:31;6.47;;;1.38;;
57217;SDS011;43078;52.972;6.482;2023-02-19T16:10:59;6.72;;;1.60;;
57217;SDS011;43078;52.972;6.482;2023-02-19T16:13:28;4.03;;;1.10;;
57217;SDS011;43078;52.972;6.482;2023-02-19T16:15:56;5.50;;;1.23;;
57217;SDS011;43078;52.972;6.482;2023-02-19T16:18:22;4.68;;;1.20;;
57217;SDS011;43078;52.972;6.482;2023-02-19T16:20:48;4.50;;;1.17;;
57217;SDS011;43078;52.972;6.482;2023-02-19T16:23:15;6.20;;;1.35;;
57217;SDS011;43078;52.972;6.482;2023-02-19T16:25:48;4.05;;;1.17;;
57217;SDS011;43078;52.972;6.482;2023-02-19T16:28:22;10.43;;;3.30;;
57217;SDS011;43078;52.972;6.482;2023-02-19T16:30:56;4.03;;;1.42;;
57217;SDS011;43078;52.972;6.482;2023-02-19T16:33:33;13.07;;;5.30;;
57217;SDS011;43078;52.972;6.482;2023-02-19T16:36:15;9.75;;;3.05;;
57217;SDS011;43078;52.972;6.482;2023-02-19T16:41:30;4.43;;;1.35;;
57217;SDS011;43078;52.972;6.482;2023-02-19T16:43:57;6.75;;;1.70;;
57217;SDS011;43078;52.972;6.482;2023-02-19T16:46:30;9.45;;;1.48;;
57217;SDS011;43078;52.972;6.482;2023-02-19T16:48:56;8.18;;;1.50;;
57217;SDS011;43078;52.972;6.482;2023-02-19T16:51:24;5.22;;;1.50;;
57217;SDS011;43078;52.972;6.482;2023-02-19T16:53:50;7.47;;;1.40;;
57217;SDS011;43078;52.972;6.482;2023-02-19T16:56:17;7.00;;;1.38;;
57217;SDS011;43078;52.972;6.482;2023-02-19T16:58:46;5.93;;;1.45;;
57217;SDS011;43078;52.972;6.482;2023-02-19T17:01:13;4.47;;;1.30;;
57217;SDS011;43078;52.972;6.482;2023-02-19T17:03:39;5.05;;;1.25;;
57217;SDS011;43078;52.972;6.482;2023-02-19T17:06:05;3.97;;;1.50;;
57217;SDS011;43078;52.972;6.482;2023-02-19T17:08:32;6.05;;;1.50;;
57217;SDS011;43078;52.972;6.482;2023-02-19T17:11:00;6.13;;;1.80;;
57217;SDS011;43078;52.972;6.482;2023-02-19T17:13:28;5.13;;;1.67;;
57217;SDS011;43078;52.972;6.482;2023-02-19T17:15:57;5.70;;;1.60;;